sensor_id;sensor_type;location;lat;lon;timestamp;pressure;altitude;pressure_sealevel;temperature;humidity
18850;BME280;4989;48.772;9.154;2022-07-10T00:03:47;98657.75;;;21.72;88.86
18850;BME280;4989;48.772;9.154;2022-07-10T00:08:51;98662.72;;;21.24;90.83
18850;BME280;4989;48.772;9.154;2022-07-10T00:13:53;98649.88;;;21.50;90.78
18850;BME280;4989;48.772;9.154;2022-07-10T00:18:55;98650.66;;;21.36;90.04
18850;BME280;4989;48.772;9.154;2022-07-10T00:23:58;98650.34;;;21.34;89.06
18850;BME280;4989;48.772;9.154;2022-07-10T00:29:00;98639.94;;;21.29;87.61
18850;BME280;4989;48.772;9.154;2022-07-10T00:34:02;98632.16;;;21.42;88.45
18850;BME280;4989;48.772;9.154;2022-07-10T00:39:04;98642.75;;;21.79;86.65
18850;BME280;4989;48.772;9.154;2022-07-10T00:44:06;98630.44;;;21.80;84.31
18850;BME280;4989;48.772;9.154;2022-07-10T00:49:08;98637.78;;;21.83;84.48
18850;BME280;4989;48.772;9.154;2022-07-10T00:54:10;98632.34;;;21.74;86.08
18850;BME280;4989;48.772;9.154;2022-07-10T00:59:13;98637.34;;;21.70;85.70
18850;BME280;4989;48.772;9.154;2022-07-10T01:04:15;98633.06;;;21.89;86.25
18850;BME280;4989;48.772;9.154;2022-07-10T01:09:17;98622.16;;;22.01;84.01
18850;BME280;4989;48.772;9.154;2022-07-10T01:14:20;98625.75;;;22.07;84.81
18850;BME280;4989;48.772;9.154;2022-07-10T01:19:23;98624.78;;;22.10;83.29
18850;BME280;4989;48.772;9.154;2022-07-10T01:24:25;98623.16;;;22.18;83.49
18850;BME280;4989;48.772;9.154;2022-07-10T01:29:28;98620.22;;;22.07;83.61
18850;BME280;4989;48.772;9.154;2022-07-10T01:34:34;98619.66;;;22.03;83.30
18850;BME280;4989;48.772;9.154;2022-07-10T01:39:36;98628.97;;;22.20;82.55
18850;BME280;4989;48.772;9.154;2022-07-10T01:44:40;98607.78;;;22.17;81.91
18850;BME280;4989;48.772;9.154;2022-07-10T01:49:42;98607.47;;;21.94;83.95
18850;BME280;4989;48.772;9.154;2022-07-10T01:54:46;98613.56;;;21.99;82.52
18850;BME280;4989;48.772;9.154;2022-07-10T01:59:48;98610.94;;;21.89;84.12
18850;BME280;4989;48.772;9.154;2022-07-10T02:04:52;98614.81;;;21.98;83.55
18850;BME280;4989;48.772;9.154;2022-07-10T02:09:54;98622.00;;;21.89;84.81
18850;BME280;4989;48.772;9.154;2022-07-10T02:14:56;98616.47;;;21.89;84.00
18850;BME280;4989;48.772;9.154;2022-07-10T02:20:01;98629.25;;;21.87;85.14
18850;BME280;4989;48.772;9.154;2022-07-10T02:25:04;98625.75;;;21.86;84.40
18850;BME280;4989;48.772;9.154;2022-07-10T02:30:06;98625.88;;;21.77;84.98
18850;BME280;4989;48.772;9.154;2022-07-10T02:35:09;98629.75;;;21.85;85.18
18850;BME280;4989;48.772;9.154;2022-07-10T02:40:11;98638.19;;;21.76;85.67
18850;BME280;4989;48.772;9.154;2022-07-10T02:45:13;98640.00;;;21.79;85.21
18850;BME280;4989;48.772;9.154;2022-07-10T02:50:15;98642.28;;;21.66;86.96
18850;BME280;4989;48.772;9.154;2022-07-10T02:55:18;98652.22;;;21.72;86.22
18850;BME280;4989;48.772;9.154;2022-07-10T03:00:20;98637.06;;;21.68;86.87
18850;BME280;4989;48.772;9.154;2022-07-10T03:05:23;98631.81;;;21.70;86.02
18850;BME280;4989;48.772;9.154;2022-07-10T03:10:25;98645.75;;;21.61;86.88
18850;BME280;4989;48.772;9.154;2022-07-10T03:15:27;98652.78;;;21.77;85.99
18850;BME280;4989;48.772;9.154;2022-07-10T03:20:29;98646.50;;;21.76;86.10
18850;BME280;4989;48.772;9.154;2022-07-10T03:25:31;98644.94;;;21.75;86.08
18850;BME280;4989;48.772;9.154;2022-07-10T03:30:33;98645.16;;;21.71;86.73
18850;BME280;4989;48.772;9.154;2022-07-10T03:35:36;98646.19;;;21.74;86.14
18850;BME280;4989;48.772;9.154;2022-07-10T03:40:38;98657.25;;;21.74;86.05
18850;BME280;4989;48.772;9.154;2022-07-10T03:45:40;98657.19;;;21.68;86.39
18850;BME280;4989;48.772;9.154;2022-07-10T03:50:42;98645.66;;;21.70;85.94
18850;BME280;4989;48.772;9.154;2022-07-10T03:55:45;98635.84;;;21.54;86.89
18850;BME280;4989;48.772;9.154;2022-07-10T04:00:47;98638.97;;;21.62;86.70
18850;BME280;4989;48.772;9.154;2022-07-10T04:05:49;98643.00;;;21.61;87.32
18850;BME280;4989;48.772;9.154;2022-07-10T04:10:51;98645.16;;;21.71;86.10
18850;BME280;4989;48.772;9.154;2022-07-10T04:15:53;98637.72;;;21.63;86.47
18850;BME280;4989;48.772;9.154;2022-07-10T04:20:56;98638.31;;;21.67;86.66
18850;BME280;4989;48.772;9.154;2022-07-10T04:25:58;98644.81;;;21.64;86.82
18850;BME280;4989;48.772;9.154;2022-07-10T04:31:00;98646.03;;;21.63;86.67
18850;BME280;4989;48.772;9.154;2022-07-10T04:36:02;98648.25;;;21.59;86.88
18850;BME280;4989;48.772;9.154;2022-07-10T04:41:05;98642.72;;;21.59;86.60
18850;BME280;4989;48.772;9.154;2022-07-10T04:46:07;98646.22;;;21.59;86.81
18850;BME280;4989;48.772;9.154;2022-07-10T04:51:09;98651.28;;;21.61;86.10
18850;BME280;4989;48.772;9.154;2022-07-10T04:56:11;98646.59;;;21.67;85.94
18850;BME280;4989;48.772;9.154;2022-07-10T05:01:14;98650.84;;;21.83;84.33
18850;BME280;4989;48.772;9.154;2022-07-10T05:06:16;98647.16;;;21.71;84.67
18850;BME280;4989;48.772;9.154;2022-07-10T05:11:18;98661.56;;;21.60;84.51
18850;BME280;4989;48.772;9.154;2022-07-10T05:16:20;98673.59;;;21.72;83.60
18850;BME280;4989;48.772;9.154;2022-07-10T05:21:22;98669.19;;;21.80;83.22
18850;BME280;4989;48.772;9.154;2022-07-10T05:26:24;98669.19;;;21.80;83.79
18850;BME280;4989;48.772;9.154;2022-07-10T05:31:26;98671.09;;;21.74;81.91
18850;BME280;4989;48.772;9.154;2022-07-10T05:36:28;98679.69;;;21.76;80.34
18850;BME280;4989;48.772;9.154;2022-07-10T05:41:30;98671.34;;;21.56;83.50
18850;BME280;4989;48.772;9.154;2022-07-10T05:46:34;98674.75;;;21.65;82.31
18850;BME280;4989;48.772;9.154;2022-07-10T05:51:36;98687.16;;;21.70;81.49
18850;BME280;4989;48.772;9.154;2022-07-10T05:56:46;98702.09;;;21.78;80.65
18850;BME280;4989;48.772;9.154;2022-07-10T06:01:48;98710.41;;;21.78;78.34
18850;BME280;4989;48.772;9.154;2022-07-10T06:06:50;98705.84;;;21.75;79.03
18850;BME280;4989;48.772;9.154;2022-07-10T06:11:52;98700.97;;;21.85;79.68
18850;BME280;4989;48.772;9.154;2022-07-10T06:16:54;98700.75;;;21.88;78.69
18850;BME280;4989;48.772;9.154;2022-07-10T06:21:56;98709.38;;;22.11;75.78
18850;BME280;4989;48.772;9.154;2022-07-10T06:27:21;98706.91;;;22.13;75.65
18850;BME280;4989;48.772;9.154;2022-07-10T06:32:24;98711.78;;;22.18;75.25
18850;BME280;4989;48.772;9.154;2022-07-10T06:37:26;98725.97;;;22.26;77.58
18850;BME280;4989;48.772;9.154;2022-07-10T06:42:28;98722.25;;;22.14;74.65
18850;BME280;4989;48.772;9.154;2022-07-10T06:47:34;98719.06;;;22.01;76.04
18850;BME280;4989;48.772;9.154;2022-07-10T06:52:59;98725.69;;;21.88;76.69
18850;BME280;4989;48.772;9.154;2022-07-10T06:58:02;98716.09;;;22.04;75.06
18850;BME280;4989;48.772;9.154;2022-07-10T07:03:04;98717.28;;;21.83;76.07
18850;BME280;4989;48.772;9.154;2022-07-10T07:08:06;98735.38;;;21.99;74.85
18850;BME280;4989;48.772;9.154;2022-07-10T07:13:08;98725.38;;;22.57;72.82
18850;BME280;4989;48.772;9.154;2022-07-10T07:18:11;98737.00;;;22.40;71.76
18850;BME280;4989;48.772;9.154;2022-07-10T07:23:14;98743.81;;;22.39;72.62
18850;BME280;4989;48.772;9.154;2022-07-10T07:28:18;98756.47;;;22.46;70.50
18850;BME280;4989;48.772;9.154;2022-07-10T07:33:21;98753.22;;;22.27;71.46
18850;BME280;4989;48.772;9.154;2022-07-10T07:38:23;98746.97;;;22.32;67.93
18850;BME280;4989;48.772;9.154;2022-07-10T07:43:25;98750.66;;;22.44;69.22
18850;BME280;4989;48.772;9.154;2022-07-10T07:48:27;98744.81;;;22.42;70.68
18850;BME280;4989;48.772;9.154;2022-07-10T07:53:29;98750.31;;;22.57;69.75
18850;BME280;4989;48.772;9.154;2022-07-10T07:58:31;98740.88;;;22.69;71.29
18850;BME280;4989;48.772;9.154;2022-07-10T08:03:34;98741.41;;;23.14;66.38
18850;BME280;4989;48.772;9.154;2022-07-10T08:08:56;98744.69;;;23.13;65.98
18850;BME280;4989;48.772;9.154;2022-07-10T08:13:58;98741.63;;;23.11;68.90
18850;BME280;4989;48.772;9.154;2022-07-10T08:19:00;98741.03;;;23.53;61.32
18850;BME280;4989;48.772;9.154;2022-07-10T08:24:02;98735.97;;;23.77;63.65
18850;BME280;4989;48.772;9.154;2022-07-10T08:29:04;98728.56;;;24.43;61.33
18850;BME280;4989;48.772;9.154;2022-07-10T08:34:06;98727.19;;;24.28;61.19
18850;BME280;4989;48.772;9.154;2022-07-10T08:39:09;98721.88;;;24.84;57.75
18850;BME280;4989;48.772;9.154;2022-07-10T08:44:11;98718.50;;;25.45;55.65
18850;BME280;4989;48.772;9.154;2022-07-10T08:49:16;98703.03;;;25.78;54.88
18850;BME280;4989;48.772;9.154;2022-07-10T08:54:20;98703.81;;;25.39;56.78
18850;BME280;4989;48.772;9.154;2022-07-10T08:59:24;98710.97;;;24.63;58.86
18850;BME280;4989;48.772;9.154;2022-07-10T09:04:32;98716.44;;;24.47;57.14
18850;BME280;4989;48.772;9.154;2022-07-10T09:09:56;98722.81;;;25.46;57.47
18850;BME280;4989;48.772;9.154;2022-07-10T09:15:16;98719.00;;;25.66;54.14
18850;BME280;4989;48.772;9.154;2022-07-10T09:20:35;98721.66;;;26.50;52.07
18850;BME280;4989;48.772;9.154;2022-07-10T09:25:37;98725.59;;;25.91;51.41
18850;BME280;4989;48.772;9.154;2022-07-10T09:30:40;98721.00;;;25.32;56.16
18850;BME280;4989;48.772;9.154;2022-07-10T09:36:04;98723.06;;;25.37;53.62
18850;BME280;4989;48.772;9.154;2022-07-10T09:41:29;98723.56;;;25.86;54.29
18850;BME280;4989;48.772;9.154;2022-07-10T09:46:38;98724.56;;;26.06;51.99
18850;BME280;4989;48.772;9.154;2022-07-10T09:51:45;98725.41;;;28.13;46.78
18850;BME280;4989;48.772;9.154;2022-07-10T09:56:51;98724.31;;;25.42;54.80
18850;BME280;4989;48.772;9.154;2022-07-10T10:01:53;98726.34;;;24.53;57.88
18850;BME280;4989;48.772;9.154;2022-07-10T10:06:58;98737.69;;;26.27;51.55
18850;BME280;4989;48.772;9.154;2022-07-10T10:12:21;98730.38;;;26.08;52.16
18850;BME280;4989;48.772;9.154;2022-07-10T10:17:28;98725.84;;;25.37;51.27
18850;BME280;4989;48.772;9.154;2022-07-10T10:22:33;98719.28;;;27.90;47.13
18850;BME280;4989;48.772;9.154;2022-07-10T10:27:37;98719.69;;;28.24;44.23
18850;BME280;4989;48.772;9.154;2022-07-10T10:32:40;98707.22;;;26.41;51.86
18850;BME280;4989;48.772;9.154;2022-07-10T10:37:42;98691.72;;;27.04;48.56
18850;BME280;4989;48.772;9.154;2022-07-10T10:42:46;98693.88;;;26.17;48.36
18850;BME280;4989;48.772;9.154;2022-07-10T10:53:29;98695.09;;;26.33;49.46
18850;BME280;4989;48.772;9.154;2022-07-10T11:14:37;98691.34;;;28.96;45.52
18850;BME280;4989;48.772;9.154;2022-07-10T11:19:40;98694.91;;;28.34;44.61
18850;BME280;4989;48.772;9.154;2022-07-10T11:25:24;98692.09;;;27.91;44.57
18850;BME280;4989;48.772;9.154;2022-07-10T11:35:52;98676.69;;;30.00;40.91
18850;BME280;4989;48.772;9.154;2022-07-10T11:40:54;98677.63;;;30.69;41.04
18850;BME280;4989;48.772;9.154;2022-07-10T11:45:57;98677.13;;;30.17;38.50
18850;BME280;4989;48.772;9.154;2022-07-10T11:51:03;98667.91;;;30.70;39.38
18850;BME280;4989;48.772;9.154;2022-07-10T11:56:19;98673.88;;;30.53;40.18
18850;BME280;4989;48.772;9.154;2022-07-10T12:01:21;98675.28;;;30.46;38.73
18850;BME280;4989;48.772;9.154;2022-07-10T12:06:25;98669.88;;;27.44;44.17
18850;BME280;4989;48.772;9.154;2022-07-10T12:11:28;98663.22;;;27.82;42.66
18850;BME280;4989;48.772;9.154;2022-07-10T12:16:35;98676.59;;;30.19;39.86
18850;BME280;4989;48.772;9.154;2022-07-10T12:21:40;98676.38;;;28.74;40.43
18850;BME280;4989;48.772;9.154;2022-07-10T12:26:44;98678.34;;;30.35;38.79
18850;BME280;4989;48.772;9.154;2022-07-10T12:31:48;98681.97;;;31.04;37.93
18850;BME280;4989;48.772;9.154;2022-07-10T12:36:53;98677.03;;;32.02;33.69
18850;BME280;4989;48.772;9.154;2022-07-10T12:42:03;98676.31;;;32.09;33.71
18850;BME280;4989;48.772;9.154;2022-07-10T12:47:14;98676.66;;;31.56;36.37
18850;BME280;4989;48.772;9.154;2022-07-10T12:52:25;98675.66;;;32.60;34.84
18850;BME280;4989;48.772;9.154;2022-07-10T12:57:32;98683.13;;;32.21;35.09
18850;BME280;4989;48.772;9.154;2022-07-10T13:02:34;98681.72;;;30.81;36.47
18850;BME280;4989;48.772;9.154;2022-07-10T13:07:37;98676.66;;;31.56;36.69
18850;BME280;4989;48.772;9.154;2022-07-10T13:12:39;98675.16;;;31.55;35.80
18850;BME280;4989;48.772;9.154;2022-07-10T13:17:45;98670.50;;;31.36;34.74
18850;BME280;4989;48.772;9.154;2022-07-10T13:22:47;98670.00;;;31.66;33.68
18850;BME280;4989;48.772;9.154;2022-07-10T13:27:49;98666.63;;;31.26;36.37
18850;BME280;4989;48.772;9.154;2022-07-10T13:32:53;98669.59;;;30.86;36.21
18850;BME280;4989;48.772;9.154;2022-07-10T13:37:59;98672.41;;;31.20;34.94
18850;BME280;4989;48.772;9.154;2022-07-10T13:43:04;98677.25;;;30.99;36.14
18850;BME280;4989;48.772;9.154;2022-07-10T13:48:06;98674.47;;;29.20;36.54
18850;BME280;4989;48.772;9.154;2022-07-10T13:53:08;98667.75;;;30.28;36.80
18850;BME280;4989;48.772;9.154;2022-07-10T13:58:12;98675.00;;;30.71;35.46
18850;BME280;4989;48.772;9.154;2022-07-10T14:03:15;98671.31;;;30.42;37.23
18850;BME280;4989;48.772;9.154;2022-07-10T14:08:17;98671.84;;;29.09;38.66
18850;BME280;4989;48.772;9.154;2022-07-10T14:13:19;98673.88;;;28.90;39.63
18850;BME280;4989;48.772;9.154;2022-07-10T14:18:22;98666.81;;;29.21;38.99
18850;BME280;4989;48.772;9.154;2022-07-10T14:23:41;98673.16;;;29.21;38.51
18850;BME280;4989;48.772;9.154;2022-07-10T14:28:46;98670.59;;;29.24;38.40
18850;BME280;4989;48.772;9.154;2022-07-10T14:33:49;98675.06;;;29.13;38.75
18850;BME280;4989;48.772;9.154;2022-07-10T14:38:57;98677.84;;;28.38;39.50
18850;BME280;4989;48.772;9.154;2022-07-10T14:44:00;98669.38;;;28.00;37.85
18850;BME280;4989;48.772;9.154;2022-07-10T14:49:02;98673.22;;;27.97;39.96
18850;BME280;4989;48.772;9.154;2022-07-10T14:54:05;98678.06;;;27.66;39.71
18850;BME280;4989;48.772;9.154;2022-07-10T14:59:07;98676.38;;;26.80;43.35
18850;BME280;4989;48.772;9.154;2022-07-10T15:04:17;98664.63;;;27.34;39.33
18850;BME280;4989;48.772;9.154;2022-07-10T15:09:19;98661.38;;;27.30;42.57
18850;BME280;4989;48.772;9.154;2022-07-10T15:14:21;98660.31;;;26.98;43.21
18850;BME280;4989;48.772;9.154;2022-07-10T15:19:23;98658.19;;;26.68;41.42
18850;BME280;4989;48.772;9.154;2022-07-10T15:24:25;98659.47;;;26.67;43.21
18850;BME280;4989;48.772;9.154;2022-07-10T15:29:27;98657.59;;;26.28;43.17
18850;BME280;4989;48.772;9.154;2022-07-10T15:34:30;98656.50;;;26.54;41.84
18850;BME280;4989;48.772;9.154;2022-07-10T15:39:32;98661.69;;;26.16;43.99
18850;BME280;4989;48.772;9.154;2022-07-10T15:44:43;98657.97;;;25.79;45.59
18850;BME280;4989;48.772;9.154;2022-07-10T15:49:45;98660.28;;;25.58;45.57
18850;BME280;4989;48.772;9.154;2022-07-10T15:54:47;98641.81;;;25.44;42.62
18850;BME280;4989;48.772;9.154;2022-07-10T15:59:49;98641.81;;;25.44;44.35
18850;BME280;4989;48.772;9.154;2022-07-10T16:04:51;98643.34;;;25.40;44.80
18850;BME280;4989;48.772;9.154;2022-07-10T16:09:56;98639.97;;;24.96;49.55
18850;BME280;4989;48.772;9.154;2022-07-10T16:14:58;98645.78;;;24.87;51.06
18850;BME280;4989;48.772;9.154;2022-07-10T16:20:01;98634.38;;;24.62;48.47
18850;BME280;4989;48.772;9.154;2022-07-10T16:25:04;98640.19;;;24.64;52.04
18850;BME280;4989;48.772;9.154;2022-07-10T16:30:25;98631.88;;;24.76;51.17
18850;BME280;4989;48.772;9.154;2022-07-10T16:35:28;98637.94;;;24.80;48.55
18850;BME280;4989;48.772;9.154;2022-07-10T16:40:31;98635.41;;;24.71;49.87
18850;BME280;4989;48.772;9.154;2022-07-10T16:45:33;98638.91;;;24.54;50.87
18850;BME280;4989;48.772;9.154;2022-07-10T16:50:35;98633.00;;;24.41;50.41
18850;BME280;4989;48.772;9.154;2022-07-10T16:55:37;98631.00;;;24.36;49.92
18850;BME280;4989;48.772;9.154;2022-07-10T17:00:40;98630.72;;;24.34;50.58
18850;BME280;4989;48.772;9.154;2022-07-10T17:05:42;98623.41;;;24.36;49.80
18850;BME280;4989;48.772;9.154;2022-07-10T17:10:44;98618.69;;;24.59;48.09
18850;BME280;4989;48.772;9.154;2022-07-10T17:15:46;98609.34;;;24.68;46.16
18850;BME280;4989;48.772;9.154;2022-07-10T17:20:50;98619.44;;;24.54;50.03
18850;BME280;4989;48.772;9.154;2022-07-10T17:25:52;98621.66;;;24.39;51.35
18850;BME280;4989;48.772;9.154;2022-07-10T17:30:54;98639.53;;;24.27;51.39
18850;BME280;4989;48.772;9.154;2022-07-10T17:35:58;98628.16;;;24.25;51.87
18850;BME280;4989;48.772;9.154;2022-07-10T17:41:01;98637.75;;;24.23;50.95
18850;BME280;4989;48.772;9.154;2022-07-10T17:46:05;98634.69;;;24.16;52.66
18850;BME280;4989;48.772;9.154;2022-07-10T17:51:07;98638.41;;;24.02;49.86
18850;BME280;4989;48.772;9.154;2022-07-10T17:56:18;98636.66;;;24.04;52.16
18850;BME280;4989;48.772;9.154;2022-07-10T18:01:21;98641.22;;;24.07;52.00
18850;BME280;4989;48.772;9.154;2022-07-10T18:06:24;98634.38;;;24.03;49.57
18850;BME280;4989;48.772;9.154;2022-07-10T18:11:26;98636.41;;;24.08;51.58
18850;BME280;4989;48.772;9.154;2022-07-10T18:16:28;98633.84;;;23.98;50.94
18850;BME280;4989;48.772;9.154;2022-07-10T18:21:31;98633.81;;;23.93;51.89
18850;BME280;4989;48.772;9.154;2022-07-10T18:26:34;98641.63;;;23.89;51.20
18850;BME280;4989;48.772;9.154;2022-07-10T18:31:36;98648.09;;;23.74;52.36
18850;BME280;4989;48.772;9.154;2022-07-10T18:36:39;98650.03;;;23.68;51.54
18850;BME280;4989;48.772;9.154;2022-07-10T18:41:41;98649.44;;;23.53;53.45
18850;BME280;4989;48.772;9.154;2022-07-10T18:46:44;98655.44;;;23.46;52.11
18850;BME280;4989;48.772;9.154;2022-07-10T18:51:46;98646.38;;;23.51;52.70
18850;BME280;4989;48.772;9.154;2022-07-10T18:56:48;98652.72;;;23.51;52.93
18850;BME280;4989;48.772;9.154;2022-07-10T19:01:50;98651.94;;;23.51;52.17
18850;BME280;4989;48.772;9.154;2022-07-10T19:06:52;98649.72;;;23.55;52.19
18850;BME280;4989;48.772;9.154;2022-07-10T19:11:55;98664.00;;;23.42;51.26
18850;BME280;4989;48.772;9.154;2022-07-10T19:16:58;98666.47;;;23.35;51.13
18850;BME280;4989;48.772;9.154;2022-07-10T19:22:00;98668.78;;;23.42;53.39
18850;BME280;4989;48.772;9.154;2022-07-10T19:27:03;98671.72;;;23.32;53.27
18850;BME280;4989;48.772;9.154;2022-07-10T19:32:06;98677.78;;;23.31;52.94
18850;BME280;4989;48.772;9.154;2022-07-10T19:37:09;98683.38;;;23.37;52.08
18850;BME280;4989;48.772;9.154;2022-07-10T19:42:11;98691.94;;;23.33;52.32
18850;BME280;4989;48.772;9.154;2022-07-10T19:47:14;98692.03;;;23.18;53.38
18850;BME280;4989;48.772;9.154;2022-07-10T19:52:20;98695.06;;;23.20;53.04
18850;BME280;4989;48.772;9.154;2022-07-10T19:57:22;98695.16;;;22.79;52.91
18850;BME280;4989;48.772;9.154;2022-07-10T20:02:24;98699.13;;;22.52;53.39
18850;BME280;4989;48.772;9.154;2022-07-10T20:07:26;98704.31;;;22.65;53.80
18850;BME280;4989;48.772;9.154;2022-07-10T20:12:28;98698.97;;;22.82;56.51
18850;BME280;4989;48.772;9.154;2022-07-10T20:17:34;98704.03;;;22.63;53.72
18850;BME280;4989;48.772;9.154;2022-07-10T20:22:39;98695.78;;;22.69;55.65
18850;BME280;4989;48.772;9.154;2022-07-10T20:27:41;98687.53;;;22.74;55.60
18850;BME280;4989;48.772;9.154;2022-07-10T20:32:44;98690.00;;;22.72;55.19
18850;BME280;4989;48.772;9.154;2022-07-10T20:37:47;98695.03;;;22.68;55.27
18850;BME280;4989;48.772;9.154;2022-07-10T20:42:49;98701.41;;;22.54;56.42
18850;BME280;4989;48.772;9.154;2022-07-10T20:47:51;98702.19;;;22.54;56.84
18850;BME280;4989;48.772;9.154;2022-07-10T20:52:53;98702.38;;;22.51;55.91
18850;BME280;4989;48.772;9.154;2022-07-10T20:57:55;98706.31;;;22.24;54.71
18850;BME280;4989;48.772;9.154;2022-07-10T21:02:57;98701.13;;;22.31;56.29
18850;BME280;4989;48.772;9.154;2022-07-10T21:08:04;98709.56;;;22.22;56.09
18850;BME280;4989;48.772;9.154;2022-07-10T21:18:10;98717.34;;;22.18;58.08
18850;BME280;4989;48.772;9.154;2022-07-10T21:23:12;98715.66;;;22.11;56.06
18850;BME280;4989;48.772;9.154;2022-07-10T21:28:15;98721.00;;;21.94;55.05
18850;BME280;4989;48.772;9.154;2022-07-10T21:33:17;98718.66;;;22.08;57.84
18850;BME280;4989;48.772;9.154;2022-07-10T21:38:19;98712.81;;;22.06;57.51
18850;BME280;4989;48.772;9.154;2022-07-10T21:43:21;98712.53;;;22.18;58.99
18850;BME280;4989;48.772;9.154;2022-07-10T21:48:23;98705.16;;;22.30;56.66
18850;BME280;4989;48.772;9.154;2022-07-10T21:53:26;98709.16;;;22.29;56.18
18850;BME280;4989;48.772;9.154;2022-07-10T21:58:28;98704.56;;;22.26;59.31
18850;BME280;4989;48.772;9.154;2022-07-10T22:03:30;98706.03;;;22.22;55.36
18850;BME280;4989;48.772;9.154;2022-07-10T22:08:33;98701.88;;;21.46;55.19
18850;BME280;4989;48.772;9.154;2022-07-10T22:13:35;98687.50;;;20.74;57.21
18850;BME280;4989;48.772;9.154;2022-07-10T22:18:37;98689.03;;;20.90;57.58
18850;BME280;4989;48.772;9.154;2022-07-10T22:23:40;98687.00;;;20.61;57.90
18850;BME280;4989;48.772;9.154;2022-07-10T22:28:42;98678.91;;;20.24;58.32
18850;BME280;4989;48.772;9.154;2022-07-10T22:33:45;98676.06;;;19.33;61.23
18850;BME280;4989;48.772;9.154;2022-07-10T22:38:48;98678.28;;;19.02;63.35
18850;BME280;4989;48.772;9.154;2022-07-10T22:43:50;98672.31;;;18.94;64.59
18850;BME280;4989;48.772;9.154;2022-07-10T22:48:52;98672.47;;;19.09;64.67
18850;BME280;4989;48.772;9.154;2022-07-10T22:53:55;98676.09;;;19.85;67.83
18850;BME280;4989;48.772;9.154;2022-07-10T22:58:57;98666.59;;;20.34;63.36
18850;BME280;4989;48.772;9.154;2022-07-10T23:03:59;98664.34;;;20.47;64.49
18850;BME280;4989;48.772;9.154;2022-07-10T23:09:03;98671.38;;;20.57;61.66
18850;BME280;4989;48.772;9.154;2022-07-10T23:14:05;98667.28;;;20.68;62.73
18850;BME280;4989;48.772;9.154;2022-07-10T23:19:07;98669.19;;;20.76;63.70
18850;BME280;4989;48.772;9.154;2022-07-10T23:24:09;98662.91;;;20.76;61.25
18850;BME280;4989;48.772;9.154;2022-07-10T23:29:11;98662.34;;;20.24;60.85
18850;BME280;4989;48.772;9.154;2022-07-10T23:34:13;98663.91;;;20.25;65.54
18850;BME280;4989;48.772;9.154;2022-07-10T23:39:15;98661.19;;;20.64;64.41
18850;BME280;4989;48.772;9.154;2022-07-10T23:44:17;98654.91;;;20.78;62.86
18850;BME280;4989;48.772;9.154;2022-07-10T23:49:19;98654.34;;;20.74;61.44
18850;BME280;4989;48.772;9.154;2022-07-10T23:54:40;98658.81;;;19.99;62.26
18850;BME280;4989;48.772;9.154;2022-07-10T23:59:47;98663.44;;;18.99;66.21
